sensor_id;sensor_type;location;lat;lon;timestamp;P1;durP1;ratioP1;P2;durP2;ratioP2
51252;SDS011;38936;47.808;19.936;2022-08-19T00:02:11;9.18;;;4.45;;
51252;SDS011;38936;47.808;19.936;2022-08-19T00:04:37;8.88;;;4.57;;
51252;SDS011;38936;47.808;19.936;2022-08-19T00:07:04;6.70;;;3.90;;
51252;SDS011;38936;47.808;19.936;2022-08-19T00:09:30;6.15;;;4.18;;
51252;SDS011;38936;47.808;19.936;2022-08-19T00:11:56;5.90;;;3.85;;
51252;SDS011;38936;47.808;19.936;2022-08-19T00:14:23;5.95;;;3.97;;
51252;SDS011;38936;47.808;19.936;2022-08-19T00:16:50;9.40;;;4.20;;
51252;SDS011;38936;47.808;19.936;2022-08-19T00:19:19;8.07;;;4.85;;
51252;SDS011;38936;47.808;19.936;2022-08-19T00:21:45;6.13;;;4.45;;
51252;SDS011;38936;47.808;19.936;2022-08-19T00:24:11;12.80;;;4.68;;
51252;SDS011;38936;47.808;19.936;2022-08-19T00:26:38;6.85;;;4.32;;
51252;SDS011;38936;47.808;19.936;2022-08-19T00:29:05;6.13;;;4.25;;
51252;SDS011;38936;47.808;19.936;2022-08-19T00:31:32;5.82;;;4.03;;
51252;SDS011;38936;47.808;19.936;2022-08-19T00:33:58;8.13;;;4.68;;
51252;SDS011;38936;47.808;19.936;2022-08-19T00:36:24;5.78;;;4.03;;
51252;SDS011;38936;47.808;19.936;2022-08-19T00:38:50;8.00;;;5.07;;
51252;SDS011;38936;47.808;19.936;2022-08-19T00:41:17;8.73;;;4.53;;
51252;SDS011;38936;47.808;19.936;2022-08-19T00:43:56;18.27;;;4.47;;
51252;SDS011;38936;47.808;19.936;2022-08-19T00:46:31;11.75;;;3.75;;
51252;SDS011;38936;47.808;19.936;2022-08-19T00:48:59;6.22;;;3.97;;
51252;SDS011;38936;47.808;19.936;2022-08-19T00:51:27;8.27;;;4.85;;
51252;SDS011;38936;47.808;19.936;2022-08-19T00:53:55;7.43;;;5.18;;
51252;SDS011;38936;47.808;19.936;2022-08-19T00:56:23;5.03;;;4.13;;
51252;SDS011;38936;47.808;19.936;2022-08-19T00:58:51;6.53;;;4.78;;
51252;SDS011;38936;47.808;19.936;2022-08-19T01:01:17;5.97;;;4.22;;
51252;SDS011;38936;47.808;19.936;2022-08-19T01:03:42;6.65;;;4.68;;
51252;SDS011;38936;47.808;19.936;2022-08-19T01:06:08;9.32;;;5.03;;
51252;SDS011;38936;47.808;19.936;2022-08-19T01:08:34;6.43;;;5.25;;
51252;SDS011;38936;47.808;19.936;2022-08-19T01:10:59;7.82;;;4.32;;
51252;SDS011;38936;47.808;19.936;2022-08-19T01:13:27;8.50;;;5.43;;
51252;SDS011;38936;47.808;19.936;2022-08-19T01:15:56;13.70;;;5.03;;
51252;SDS011;38936;47.808;19.936;2022-08-19T01:18:26;8.50;;;4.57;;
51252;SDS011;38936;47.808;19.936;2022-08-19T01:20:54;7.68;;;5.22;;
51252;SDS011;38936;47.808;19.936;2022-08-19T01:23:22;9.05;;;5.43;;
51252;SDS011;38936;47.808;19.936;2022-08-19T01:26:07;10.88;;;5.00;;
51252;SDS011;38936;47.808;19.936;2022-08-19T01:28:38;10.77;;;5.00;;
51252;SDS011;38936;47.808;19.936;2022-08-19T01:31:06;8.27;;;5.25;;
51252;SDS011;38936;47.808;19.936;2022-08-19T01:33:36;14.88;;;5.30;;
51252;SDS011;38936;47.808;19.936;2022-08-19T01:36:12;15.10;;;5.43;;
51252;SDS011;38936;47.808;19.936;2022-08-19T01:38:41;6.05;;;4.97;;
51252;SDS011;38936;47.808;19.936;2022-08-19T01:41:08;8.07;;;4.38;;
51252;SDS011;38936;47.808;19.936;2022-08-19T01:43:36;6.32;;;4.22;;
51252;SDS011;38936;47.808;19.936;2022-08-19T01:46:03;10.30;;;5.13;;
51252;SDS011;38936;47.808;19.936;2022-08-19T01:48:37;10.75;;;4.68;;
51252;SDS011;38936;47.808;19.936;2022-08-19T01:51:04;7.32;;;5.10;;
51252;SDS011;38936;47.808;19.936;2022-08-19T01:53:30;6.47;;;5.03;;
51252;SDS011;38936;47.808;19.936;2022-08-19T01:55:56;6.95;;;5.38;;
51252;SDS011;38936;47.808;19.936;2022-08-19T01:58:24;8.10;;;5.60;;
51252;SDS011;38936;47.808;19.936;2022-08-19T02:00:55;8.60;;;4.97;;
51252;SDS011;38936;47.808;19.936;2022-08-19T02:03:21;9.52;;;5.25;;
51252;SDS011;38936;47.808;19.936;2022-08-19T02:05:47;6.00;;;4.57;;
51252;SDS011;38936;47.808;19.936;2022-08-19T02:08:18;7.70;;;5.10;;
51252;SDS011;38936;47.808;19.936;2022-08-19T02:10:44;9.57;;;4.72;;
51252;SDS011;38936;47.808;19.936;2022-08-19T02:13:10;7.50;;;4.68;;
51252;SDS011;38936;47.808;19.936;2022-08-19T02:15:36;9.57;;;5.32;;
51252;SDS011;38936;47.808;19.936;2022-08-19T02:18:02;9.93;;;4.93;;
51252;SDS011;38936;47.808;19.936;2022-08-19T02:20:28;7.82;;;5.07;;
51252;SDS011;38936;47.808;19.936;2022-08-19T02:22:54;7.65;;;5.25;;
51252;SDS011;38936;47.808;19.936;2022-08-19T02:25:20;8.85;;;4.55;;
51252;SDS011;38936;47.808;19.936;2022-08-19T02:27:45;6.80;;;5.00;;
51252;SDS011;38936;47.808;19.936;2022-08-19T02:30:12;7.40;;;4.53;;
51252;SDS011;38936;47.808;19.936;2022-08-19T02:32:41;8.77;;;5.90;;
51252;SDS011;38936;47.808;19.936;2022-08-19T02:35:07;10.95;;;5.55;;
51252;SDS011;38936;47.808;19.936;2022-08-19T02:37:34;9.48;;;4.88;;
51252;SDS011;38936;47.808;19.936;2022-08-19T02:40:18;10.93;;;5.35;;
51252;SDS011;38936;47.808;19.936;2022-08-19T02:42:44;8.38;;;4.72;;
51252;SDS011;38936;47.808;19.936;2022-08-19T02:45:11;7.95;;;5.28;;
51252;SDS011;38936;47.808;19.936;2022-08-19T02:47:38;7.00;;;4.82;;
51252;SDS011;38936;47.808;19.936;2022-08-19T02:50:04;7.95;;;5.10;;
51252;SDS011;38936;47.808;19.936;2022-08-19T02:52:31;13.07;;;6.28;;
51252;SDS011;38936;47.808;19.936;2022-08-19T02:54:58;6.70;;;5.38;;
51252;SDS011;38936;47.808;19.936;2022-08-19T02:57:24;10.07;;;5.10;;
51252;SDS011;38936;47.808;19.936;2022-08-19T02:59:49;6.03;;;4.95;;
51252;SDS011;38936;47.808;19.936;2022-08-19T03:02:15;5.80;;;4.55;;
51252;SDS011;38936;47.808;19.936;2022-08-19T03:04:41;8.45;;;4.88;;
51252;SDS011;38936;47.808;19.936;2022-08-19T03:07:07;6.10;;;4.97;;
51252;SDS011;38936;47.808;19.936;2022-08-19T03:09:33;10.38;;;5.63;;
51252;SDS011;38936;47.808;19.936;2022-08-19T03:12:02;9.68;;;6.15;;
51252;SDS011;38936;47.808;19.936;2022-08-19T03:14:30;9.60;;;5.43;;
51252;SDS011;38936;47.808;19.936;2022-08-19T03:16:57;7.55;;;4.93;;
51252;SDS011;38936;47.808;19.936;2022-08-19T03:19:23;6.20;;;4.90;;
51252;SDS011;38936;47.808;19.936;2022-08-19T03:21:49;7.88;;;5.57;;
51252;SDS011;38936;47.808;19.936;2022-08-19T03:24:16;5.97;;;4.53;;
51252;SDS011;38936;47.808;19.936;2022-08-19T03:26:45;12.25;;;5.15;;
51252;SDS011;38936;47.808;19.936;2022-08-19T03:29:16;8.85;;;4.43;;
51252;SDS011;38936;47.808;19.936;2022-08-19T03:31:43;6.32;;;4.70;;
51252;SDS011;38936;47.808;19.936;2022-08-19T03:34:13;9.63;;;5.85;;
51252;SDS011;38936;47.808;19.936;2022-08-19T03:36:58;6.95;;;4.60;;
51252;SDS011;38936;47.808;19.936;2022-08-19T03:39:29;7.40;;;4.68;;
51252;SDS011;38936;47.808;19.936;2022-08-19T03:41:55;5.95;;;4.05;;
51252;SDS011;38936;47.808;19.936;2022-08-19T03:44:23;6.22;;;4.20;;
51252;SDS011;38936;47.808;19.936;2022-08-19T03:46:52;5.47;;;4.38;;
51252;SDS011;38936;47.808;19.936;2022-08-19T03:49:23;8.00;;;4.65;;
51252;SDS011;38936;47.808;19.936;2022-08-19T03:51:50;7.88;;;4.80;;
51252;SDS011;38936;47.808;19.936;2022-08-19T03:54:17;8.63;;;3.72;;
51252;SDS011;38936;47.808;19.936;2022-08-19T03:56:45;6.97;;;4.63;;
51252;SDS011;38936;47.808;19.936;2022-08-19T03:59:15;7.93;;;4.03;;
51252;SDS011;38936;47.808;19.936;2022-08-19T04:01:45;7.28;;;4.55;;
51252;SDS011;38936;47.808;19.936;2022-08-19T04:04:11;6.13;;;4.30;;
51252;SDS011;38936;47.808;19.936;2022-08-19T04:06:37;7.45;;;4.28;;
51252;SDS011;38936;47.808;19.936;2022-08-19T04:09:04;8.80;;;3.63;;
51252;SDS011;38936;47.808;19.936;2022-08-19T04:11:33;11.52;;;3.85;;
51252;SDS011;38936;47.808;19.936;2022-08-19T04:14:01;6.00;;;4.40;;
51252;SDS011;38936;47.808;19.936;2022-08-19T04:16:27;6.43;;;4.25;;
51252;SDS011;38936;47.808;19.936;2022-08-19T04:18:54;5.95;;;4.40;;
51252;SDS011;38936;47.808;19.936;2022-08-19T04:21:22;11.80;;;4.40;;
51252;SDS011;38936;47.808;19.936;2022-08-19T04:23:49;6.32;;;3.92;;
51252;SDS011;38936;47.808;19.936;2022-08-19T04:26:20;9.95;;;4.65;;
51252;SDS011;38936;47.808;19.936;2022-08-19T04:28:49;7.07;;;3.67;;
51252;SDS011;38936;47.808;19.936;2022-08-19T04:31:23;7.80;;;3.58;;
51252;SDS011;38936;47.808;19.936;2022-08-19T04:33:55;7.50;;;4.07;;
51252;SDS011;38936;47.808;19.936;2022-08-19T04:36:27;6.38;;;4.60;;
51252;SDS011;38936;47.808;19.936;2022-08-19T04:38:55;7.65;;;4.70;;
51252;SDS011;38936;47.808;19.936;2022-08-19T04:41:25;8.63;;;4.15;;
51252;SDS011;38936;47.808;19.936;2022-08-19T04:44:09;8.15;;;4.15;;
51252;SDS011;38936;47.808;19.936;2022-08-19T04:46:36;5.63;;;3.78;;
51252;SDS011;38936;47.808;19.936;2022-08-19T04:49:03;5.60;;;4.25;;
51252;SDS011;38936;47.808;19.936;2022-08-19T04:51:30;8.88;;;4.10;;
51252;SDS011;38936;47.808;19.936;2022-08-19T04:53:57;7.68;;;3.92;;
51252;SDS011;38936;47.808;19.936;2022-08-19T04:56:25;9.52;;;5.13;;
51252;SDS011;38936;47.808;19.936;2022-08-19T04:58:52;6.10;;;3.83;;
51252;SDS011;38936;47.808;19.936;2022-08-19T05:01:22;6.53;;;3.78;;
51252;SDS011;38936;47.808;19.936;2022-08-19T05:03:50;5.53;;;4.03;;
51252;SDS011;38936;47.808;19.936;2022-08-19T05:06:17;8.10;;;3.95;;
51252;SDS011;38936;47.808;19.936;2022-08-19T05:08:45;5.28;;;3.78;;
51252;SDS011;38936;47.808;19.936;2022-08-19T05:14:09;9.27;;;3.90;;
51252;SDS011;38936;47.808;19.936;2022-08-19T05:16:37;4.20;;;3.60;;
51252;SDS011;38936;47.808;19.936;2022-08-19T05:19:04;8.77;;;3.58;;
51252;SDS011;38936;47.808;19.936;2022-08-19T05:21:48;4.93;;;3.85;;
51252;SDS011;38936;47.808;19.936;2022-08-19T05:24:32;4.80;;;3.42;;
51252;SDS011;38936;47.808;19.936;2022-08-19T05:27:01;4.15;;;3.00;;
51252;SDS011;38936;47.808;19.936;2022-08-19T05:29:28;4.38;;;3.53;;
51252;SDS011;38936;47.808;19.936;2022-08-19T05:31:56;3.90;;;2.88;;
51252;SDS011;38936;47.808;19.936;2022-08-19T05:34:23;10.48;;;3.78;;
51252;SDS011;38936;47.808;19.936;2022-08-19T05:36:52;4.45;;;3.10;;
51252;SDS011;38936;47.808;19.936;2022-08-19T05:39:22;8.75;;;4.00;;
51252;SDS011;38936;47.808;19.936;2022-08-19T05:41:51;5.65;;;3.28;;
51252;SDS011;38936;47.808;19.936;2022-08-19T05:44:19;5.47;;;3.97;;
51252;SDS011;38936;47.808;19.936;2022-08-19T05:46:46;7.50;;;3.75;;
51252;SDS011;38936;47.808;19.936;2022-08-19T05:49:13;4.60;;;3.08;;
51252;SDS011;38936;47.808;19.936;2022-08-19T05:51:41;6.28;;;3.20;;
51252;SDS011;38936;47.808;19.936;2022-08-19T05:54:07;5.63;;;3.60;;
51252;SDS011;38936;47.808;19.936;2022-08-19T05:56:33;4.38;;;3.50;;
51252;SDS011;38936;47.808;19.936;2022-08-19T05:59:03;5.03;;;3.35;;
51252;SDS011;38936;47.808;19.936;2022-08-19T06:01:33;5.72;;;3.30;;
51252;SDS011;38936;47.808;19.936;2022-08-19T06:03:59;5.90;;;3.08;;
51252;SDS011;38936;47.808;19.936;2022-08-19T06:06:25;4.10;;;3.28;;
51252;SDS011;38936;47.808;19.936;2022-08-19T06:08:51;7.50;;;3.05;;
51252;SDS011;38936;47.808;19.936;2022-08-19T06:11:21;6.88;;;3.42;;
51252;SDS011;38936;47.808;19.936;2022-08-19T06:13:50;11.95;;;3.40;;
51252;SDS011;38936;47.808;19.936;2022-08-19T06:16:21;4.47;;;2.97;;
51252;SDS011;38936;47.808;19.936;2022-08-19T06:18:54;3.88;;;2.92;;
51252;SDS011;38936;47.808;19.936;2022-08-19T06:21:22;3.83;;;2.77;;
51252;SDS011;38936;47.808;19.936;2022-08-19T06:23:50;5.85;;;3.30;;
51252;SDS011;38936;47.808;19.936;2022-08-19T06:26:16;5.00;;;3.75;;
51252;SDS011;38936;47.808;19.936;2022-08-19T06:28:43;6.65;;;2.78;;
51252;SDS011;38936;47.808;19.936;2022-08-19T06:31:33;4.70;;;3.10;;
51252;SDS011;38936;47.808;19.936;2022-08-19T06:33:59;7.75;;;3.47;;
51252;SDS011;38936;47.808;19.936;2022-08-19T06:36:28;4.47;;;3.13;;
51252;SDS011;38936;47.808;19.936;2022-08-19T06:39:03;7.75;;;2.80;;
51252;SDS011;38936;47.808;19.936;2022-08-19T06:41:30;8.23;;;3.53;;
51252;SDS011;38936;47.808;19.936;2022-08-19T06:43:59;3.92;;;2.85;;
51252;SDS011;38936;47.808;19.936;2022-08-19T06:46:24;7.88;;;3.42;;
51252;SDS011;38936;47.808;19.936;2022-08-19T06:48:51;3.95;;;2.75;;
51252;SDS011;38936;47.808;19.936;2022-08-19T06:51:19;6.03;;;3.53;;
51252;SDS011;38936;47.808;19.936;2022-08-19T06:53:46;6.63;;;3.35;;
51252;SDS011;38936;47.808;19.936;2022-08-19T06:56:13;8.32;;;3.30;;
51252;SDS011;38936;47.808;19.936;2022-08-19T06:58:40;5.28;;;3.08;;
51252;SDS011;38936;47.808;19.936;2022-08-19T07:01:06;5.50;;;3.47;;
51252;SDS011;38936;47.808;19.936;2022-08-19T07:03:32;6.32;;;2.95;;
51252;SDS011;38936;47.808;19.936;2022-08-19T07:06:10;6.45;;;2.88;;
51252;SDS011;38936;47.808;19.936;2022-08-19T07:08:39;5.03;;;3.08;;
51252;SDS011;38936;47.808;19.936;2022-08-19T07:11:09;5.97;;;2.72;;
51252;SDS011;38936;47.808;19.936;2022-08-19T07:13:38;9.00;;;3.20;;
51252;SDS011;38936;47.808;19.936;2022-08-19T07:16:08;8.52;;;3.85;;
51252;SDS011;38936;47.808;19.936;2022-08-19T07:18:36;5.45;;;3.50;;
51252;SDS011;38936;47.808;19.936;2022-08-19T07:21:04;6.28;;;3.33;;
51252;SDS011;38936;47.808;19.936;2022-08-19T07:23:36;8.43;;;4.43;;
51252;SDS011;38936;47.808;19.936;2022-08-19T07:26:09;7.30;;;4.20;;
51252;SDS011;38936;47.808;19.936;2022-08-19T07:28:41;12.15;;;4.18;;
51252;SDS011;38936;47.808;19.936;2022-08-19T07:31:09;6.70;;;3.67;;
51252;SDS011;38936;47.808;19.936;2022-08-19T07:33:38;7.80;;;3.90;;
51252;SDS011;38936;47.808;19.936;2022-08-19T07:36:06;10.57;;;4.47;;
51252;SDS011;38936;47.808;19.936;2022-08-19T07:38:36;6.30;;;4.20;;
51252;SDS011;38936;47.808;19.936;2022-08-19T07:41:03;7.78;;;3.80;;
51252;SDS011;38936;47.808;19.936;2022-08-19T07:43:29;5.75;;;3.40;;
51252;SDS011;38936;47.808;19.936;2022-08-19T07:45:54;10.95;;;4.15;;
51252;SDS011;38936;47.808;19.936;2022-08-19T07:48:24;11.63;;;4.72;;
51252;SDS011;38936;47.808;19.936;2022-08-19T07:50:55;5.03;;;4.05;;
51252;SDS011;38936;47.808;19.936;2022-08-19T07:53:22;9.18;;;3.53;;
51252;SDS011;38936;47.808;19.936;2022-08-19T07:55:49;4.75;;;3.33;;
51252;SDS011;38936;47.808;19.936;2022-08-19T07:58:16;5.35;;;3.05;;
51252;SDS011;38936;47.808;19.936;2022-08-19T08:00:45;6.07;;;3.65;;
51252;SDS011;38936;47.808;19.936;2022-08-19T08:03:12;6.35;;;3.60;;
51252;SDS011;38936;47.808;19.936;2022-08-19T08:05:39;6.32;;;3.20;;
51252;SDS011;38936;47.808;19.936;2022-08-19T08:08:24;6.93;;;3.53;;
51252;SDS011;38936;47.808;19.936;2022-08-19T08:11:02;5.60;;;3.42;;
51252;SDS011;38936;47.808;19.936;2022-08-19T08:13:29;7.03;;;3.55;;
51252;SDS011;38936;47.808;19.936;2022-08-19T08:15:55;4.47;;;3.58;;
51252;SDS011;38936;47.808;19.936;2022-08-19T08:18:21;8.18;;;3.45;;
51252;SDS011;38936;47.808;19.936;2022-08-19T08:20:50;8.60;;;3.20;;
51252;SDS011;38936;47.808;19.936;2022-08-19T08:23:16;9.73;;;3.50;;
51252;SDS011;38936;47.808;19.936;2022-08-19T08:25:48;9.38;;;3.50;;
51252;SDS011;38936;47.808;19.936;2022-08-19T08:28:14;6.47;;;3.80;;
51252;SDS011;38936;47.808;19.936;2022-08-19T08:30:41;6.43;;;3.17;;
51252;SDS011;38936;47.808;19.936;2022-08-19T08:33:08;11.88;;;3.83;;
51252;SDS011;38936;47.808;19.936;2022-08-19T08:35:35;7.95;;;3.45;;
51252;SDS011;38936;47.808;19.936;2022-08-19T08:38:01;8.18;;;3.22;;
51252;SDS011;38936;47.808;19.936;2022-08-19T08:40:45;6.82;;;3.30;;
51252;SDS011;38936;47.808;19.936;2022-08-19T08:43:32;7.95;;;3.63;;
51252;SDS011;38936;47.808;19.936;2022-08-19T08:46:02;4.13;;;3.33;;
51252;SDS011;38936;47.808;19.936;2022-08-19T08:48:33;5.50;;;3.25;;
51252;SDS011;38936;47.808;19.936;2022-08-19T08:51:02;5.45;;;3.35;;
51252;SDS011;38936;47.808;19.936;2022-08-19T08:53:30;4.72;;;3.13;;
51252;SDS011;38936;47.808;19.936;2022-08-19T08:55:58;5.80;;;3.00;;
51252;SDS011;38936;47.808;19.936;2022-08-19T08:59:12;4.65;;;3.22;;
51252;SDS011;38936;47.808;19.936;2022-08-19T09:01:23;8.83;;;3.07;;
51252;SDS011;38936;47.808;19.936;2022-08-19T09:03:49;7.53;;;3.25;;
51252;SDS011;38936;47.808;19.936;2022-08-19T09:07:06;9.50;;;3.22;;
51252;SDS011;38936;47.808;19.936;2022-08-19T09:09:13;18.20;;;3.90;;
51252;SDS011;38936;47.808;19.936;2022-08-19T09:11:55;6.50;;;3.15;;
51252;SDS011;38936;47.808;19.936;2022-08-19T09:14:32;7.95;;;3.58;;
51252;SDS011;38936;47.808;19.936;2022-08-19T09:17:01;11.15;;;3.50;;
51252;SDS011;38936;47.808;19.936;2022-08-19T09:19:28;5.53;;;3.20;;
51252;SDS011;38936;47.808;19.936;2022-08-19T09:21:55;7.15;;;3.33;;
51252;SDS011;38936;47.808;19.936;2022-08-19T09:24:20;6.55;;;3.70;;
51252;SDS011;38936;47.808;19.936;2022-08-19T09:26:46;6.18;;;3.00;;
51252;SDS011;38936;47.808;19.936;2022-08-19T09:29:12;6.13;;;3.67;;
51252;SDS011;38936;47.808;19.936;2022-08-19T09:31:38;5.78;;;3.05;;
51252;SDS011;38936;47.808;19.936;2022-08-19T09:34:04;10.20;;;3.33;;
51252;SDS011;38936;47.808;19.936;2022-08-19T09:36:30;7.53;;;3.65;;
51252;SDS011;38936;47.808;19.936;2022-08-19T09:38:58;12.32;;;4.28;;
51252;SDS011;38936;47.808;19.936;2022-08-19T09:41:25;7.97;;;3.60;;
51252;SDS011;38936;47.808;19.936;2022-08-19T09:43:51;4.75;;;3.50;;
51252;SDS011;38936;47.808;19.936;2022-08-19T09:46:20;9.40;;;3.40;;
51252;SDS011;38936;47.808;19.936;2022-08-19T09:48:47;5.60;;;3.20;;
51252;SDS011;38936;47.808;19.936;2022-08-19T09:51:16;8.63;;;3.60;;
51252;SDS011;38936;47.808;19.936;2022-08-19T09:53:44;5.82;;;3.28;;
51252;SDS011;38936;47.808;19.936;2022-08-19T09:56:12;6.35;;;3.42;;
51252;SDS011;38936;47.808;19.936;2022-08-19T09:58:39;12.45;;;4.28;;
51252;SDS011;38936;47.808;19.936;2022-08-19T10:01:06;6.88;;;3.65;;
51252;SDS011;38936;47.808;19.936;2022-08-19T10:03:33;10.82;;;3.47;;
51252;SDS011;38936;47.808;19.936;2022-08-19T10:06:00;8.45;;;3.47;;
51252;SDS011;38936;47.808;19.936;2022-08-19T10:08:29;9.05;;;3.97;;
51252;SDS011;38936;47.808;19.936;2022-08-19T10:10:58;13.25;;;4.13;;
51252;SDS011;38936;47.808;19.936;2022-08-19T10:13:26;11.82;;;3.78;;
51252;SDS011;38936;47.808;19.936;2022-08-19T10:15:54;12.88;;;3.90;;
51252;SDS011;38936;47.808;19.936;2022-08-19T10:18:21;9.55;;;3.83;;
51252;SDS011;38936;47.808;19.936;2022-08-19T10:20:49;18.73;;;5.40;;
51252;SDS011;38936;47.808;19.936;2022-08-19T10:23:16;14.20;;;4.28;;
51252;SDS011;38936;47.808;19.936;2022-08-19T10:25:42;6.88;;;3.70;;
51252;SDS011;38936;47.808;19.936;2022-08-19T10:28:09;18.40;;;3.88;;
51252;SDS011;38936;47.808;19.936;2022-08-19T10:30:37;10.88;;;3.72;;
51252;SDS011;38936;47.808;19.936;2022-08-19T10:33:04;7.60;;;4.55;;
51252;SDS011;38936;47.808;19.936;2022-08-19T10:35:30;18.67;;;4.15;;
51252;SDS011;38936;47.808;19.936;2022-08-19T10:37:56;15.40;;;4.40;;
51252;SDS011;38936;47.808;19.936;2022-08-19T10:40:26;12.73;;;4.10;;
51252;SDS011;38936;47.808;19.936;2022-08-19T10:42:53;8.05;;;4.05;;
51252;SDS011;38936;47.808;19.936;2022-08-19T10:45:20;13.88;;;3.63;;
51252;SDS011;38936;47.808;19.936;2022-08-19T10:47:50;13.60;;;4.97;;
51252;SDS011;38936;47.808;19.936;2022-08-19T10:50:16;9.52;;;3.90;;
51252;SDS011;38936;47.808;19.936;2022-08-19T10:53:03;11.57;;;3.60;;
51252;SDS011;38936;47.808;19.936;2022-08-19T10:55:29;6.97;;;3.33;;
51252;SDS011;38936;47.808;19.936;2022-08-19T10:58:14;6.05;;;3.63;;
51252;SDS011;38936;47.808;19.936;2022-08-19T11:00:51;8.80;;;4.13;;
51252;SDS011;38936;47.808;19.936;2022-08-19T11:03:21;9.88;;;4.25;;
51252;SDS011;38936;47.808;19.936;2022-08-19T11:05:56;13.77;;;4.90;;
51252;SDS011;38936;47.808;19.936;2022-08-19T11:08:23;13.48;;;4.65;;
51252;SDS011;38936;47.808;19.936;2022-08-19T11:10:52;8.32;;;3.88;;
51252;SDS011;38936;47.808;19.936;2022-08-19T11:13:21;7.18;;;4.35;;
51252;SDS011;38936;47.808;19.936;2022-08-19T11:15:55;15.77;;;4.00;;
51252;SDS011;38936;47.808;19.936;2022-08-19T11:18:21;13.07;;;5.90;;
51252;SDS011;38936;47.808;19.936;2022-08-19T11:20:47;13.52;;;3.80;;
51252;SDS011;38936;47.808;19.936;2022-08-19T11:23:14;8.38;;;3.95;;
51252;SDS011;38936;47.808;19.936;2022-08-19T11:25:39;9.93;;;4.10;;
51252;SDS011;38936;47.808;19.936;2022-08-19T11:28:06;9.60;;;4.03;;
51252;SDS011;38936;47.808;19.936;2022-08-19T11:30:32;10.82;;;3.92;;
51252;SDS011;38936;47.808;19.936;2022-08-19T11:32:58;9.70;;;4.63;;
51252;SDS011;38936;47.808;19.936;2022-08-19T11:35:25;20.25;;;4.28;;
51252;SDS011;38936;47.808;19.936;2022-08-19T11:37:51;9.70;;;4.80;;
51252;SDS011;38936;47.808;19.936;2022-08-19T11:40:17;12.27;;;4.80;;
51252;SDS011;38936;47.808;19.936;2022-08-19T11:42:43;10.00;;;3.78;;
51252;SDS011;38936;47.808;19.936;2022-08-19T11:45:21;8.93;;;4.57;;
51252;SDS011;38936;47.808;19.936;2022-08-19T11:47:51;6.30;;;3.47;;
51252;SDS011;38936;47.808;19.936;2022-08-19T11:50:17;13.95;;;3.97;;
51252;SDS011;38936;47.808;19.936;2022-08-19T11:52:43;17.75;;;4.35;;
51252;SDS011;38936;47.808;19.936;2022-08-19T11:55:10;11.32;;;4.65;;
51252;SDS011;38936;47.808;19.936;2022-08-19T11:57:37;12.90;;;3.78;;
51252;SDS011;38936;47.808;19.936;2022-08-19T12:00:04;12.30;;;5.15;;
51252;SDS011;38936;47.808;19.936;2022-08-19T12:02:32;13.13;;;3.38;;
51252;SDS011;38936;47.808;19.936;2022-08-19T12:04:57;7.55;;;3.45;;
51252;SDS011;38936;47.808;19.936;2022-08-19T12:07:23;10.48;;;3.45;;
51252;SDS011;38936;47.808;19.936;2022-08-19T12:09:49;9.57;;;4.22;;
51252;SDS011;38936;47.808;19.936;2022-08-19T12:12:15;17.50;;;4.45;;
51252;SDS011;38936;47.808;19.936;2022-08-19T12:14:41;8.90;;;4.13;;
51252;SDS011;38936;47.808;19.936;2022-08-19T12:17:07;8.95;;;3.55;;
51252;SDS011;38936;47.808;19.936;2022-08-19T12:19:35;14.43;;;3.70;;
51252;SDS011;38936;47.808;19.936;2022-08-19T12:22:02;6.38;;;3.30;;
51252;SDS011;38936;47.808;19.936;2022-08-19T12:24:30;10.00;;;3.78;;
51252;SDS011;38936;47.808;19.936;2022-08-19T12:26:57;7.00;;;4.00;;
51252;SDS011;38936;47.808;19.936;2022-08-19T12:29:23;8.18;;;3.45;;
51252;SDS011;38936;47.808;19.936;2022-08-19T12:31:54;7.70;;;3.50;;
51252;SDS011;38936;47.808;19.936;2022-08-19T12:34:25;10.52;;;3.58;;
51252;SDS011;38936;47.808;19.936;2022-08-19T12:36:54;8.77;;;3.47;;
51252;SDS011;38936;47.808;19.936;2022-08-19T12:39:21;8.60;;;3.53;;
51252;SDS011;38936;47.808;19.936;2022-08-19T12:41:47;9.55;;;3.08;;
51252;SDS011;38936;47.808;19.936;2022-08-19T12:44:14;5.82;;;2.80;;
51252;SDS011;38936;47.808;19.936;2022-08-19T12:46:40;13.05;;;2.90;;
51252;SDS011;38936;47.808;19.936;2022-08-19T12:49:05;6.70;;;3.08;;
51252;SDS011;38936;47.808;19.936;2022-08-19T12:51:31;8.10;;;3.00;;
51252;SDS011;38936;47.808;19.936;2022-08-19T12:53:57;7.15;;;3.30;;
51252;SDS011;38936;47.808;19.936;2022-08-19T12:56:22;8.77;;;4.30;;
51252;SDS011;38936;47.808;19.936;2022-08-19T12:58:48;8.98;;;2.90;;
51252;SDS011;38936;47.808;19.936;2022-08-19T13:01:15;10.98;;;2.97;;
51252;SDS011;38936;47.808;19.936;2022-08-19T13:03:41;7.93;;;3.33;;
51252;SDS011;38936;47.808;19.936;2022-08-19T13:06:09;14.35;;;3.80;;
51252;SDS011;38936;47.808;19.936;2022-08-19T13:08:35;11.32;;;3.03;;
51252;SDS011;38936;47.808;19.936;2022-08-19T13:11:09;8.13;;;2.90;;
51252;SDS011;38936;47.808;19.936;2022-08-19T13:13:45;11.55;;;3.00;;
51252;SDS011;38936;47.808;19.936;2022-08-19T13:16:12;8.35;;;3.13;;
51252;SDS011;38936;47.808;19.936;2022-08-19T13:18:39;10.68;;;3.30;;
51252;SDS011;38936;47.808;19.936;2022-08-19T13:21:07;9.57;;;3.35;;
51252;SDS011;38936;47.808;19.936;2022-08-19T13:23:34;10.13;;;3.05;;
51252;SDS011;38936;47.808;19.936;2022-08-19T13:26:02;9.75;;;3.00;;
51252;SDS011;38936;47.808;19.936;2022-08-19T13:28:30;10.18;;;3.33;;
51252;SDS011;38936;47.808;19.936;2022-08-19T13:31:21;14.85;;;3.35;;
51252;SDS011;38936;47.808;19.936;2022-08-19T13:34:07;9.88;;;3.33;;
51252;SDS011;38936;47.808;19.936;2022-08-19T13:36:33;4.57;;;3.28;;
51252;SDS011;38936;47.808;19.936;2022-08-19T13:39:00;7.75;;;3.55;;
51252;SDS011;38936;47.808;19.936;2022-08-19T13:41:26;8.07;;;3.40;;
51252;SDS011;38936;47.808;19.936;2022-08-19T13:43:52;15.27;;;3.30;;
51252;SDS011;38936;47.808;19.936;2022-08-19T13:46:19;11.00;;;3.30;;
51252;SDS011;38936;47.808;19.936;2022-08-19T13:48:46;13.90;;;3.60;;
51252;SDS011;38936;47.808;19.936;2022-08-19T13:51:15;12.50;;;4.18;;
51252;SDS011;38936;47.808;19.936;2022-08-19T13:53:42;6.22;;;3.55;;
51252;SDS011;38936;47.808;19.936;2022-08-19T13:56:10;20.98;;;4.13;;
51252;SDS011;38936;47.808;19.936;2022-08-19T13:58:38;9.07;;;3.25;;
51252;SDS011;38936;47.808;19.936;2022-08-19T14:01:04;8.80;;;3.13;;
51252;SDS011;38936;47.808;19.936;2022-08-19T14:03:29;8.10;;;3.33;;
51252;SDS011;38936;47.808;19.936;2022-08-19T14:05:56;10.27;;;3.50;;
51252;SDS011;38936;47.808;19.936;2022-08-19T14:08:22;18.65;;;3.92;;
51252;SDS011;38936;47.808;19.936;2022-08-19T14:10:48;12.15;;;3.78;;
51252;SDS011;38936;47.808;19.936;2022-08-19T14:13:15;7.78;;;3.30;;
51252;SDS011;38936;47.808;19.936;2022-08-19T14:15:43;12.88;;;3.50;;
51252;SDS011;38936;47.808;19.936;2022-08-19T14:18:09;15.43;;;4.28;;
51252;SDS011;38936;47.808;19.936;2022-08-19T14:20:35;11.73;;;3.70;;
51252;SDS011;38936;47.808;19.936;2022-08-19T14:23:01;5.60;;;3.47;;
51252;SDS011;38936;47.808;19.936;2022-08-19T14:25:28;10.50;;;3.47;;
51252;SDS011;38936;47.808;19.936;2022-08-19T14:27:54;14.73;;;3.63;;
51252;SDS011;38936;47.808;19.936;2022-08-19T14:30:32;10.15;;;3.20;;
51252;SDS011;38936;47.808;19.936;2022-08-19T14:32:59;7.32;;;3.45;;
51252;SDS011;38936;47.808;19.936;2022-08-19T14:35:30;11.82;;;3.80;;
51252;SDS011;38936;47.808;19.936;2022-08-19T14:37:59;10.23;;;4.63;;
51252;SDS011;38936;47.808;19.936;2022-08-19T14:40:27;6.90;;;3.30;;
51252;SDS011;38936;47.808;19.936;2022-08-19T14:42:58;9.95;;;4.15;;